Reno, NV

9:37 PM PST on December 07, 2016 (GMT -0800)
UNR Campus, LMR Roof | | Change Station
Active Advisory: Winter Weather Advisory

Elev 4570 ft 39.54 °N, 119.81 °W | Updated 8 seconds ago

Light Snow
Light Snow
27.7 °F
Feels Like 28 °F
N
1.8
Wind Variable Wind from NE
Gusts 0.0 mph

Today
High -- | Low -- °F
--% Chance of Precip.
Yesterday
High -- | Low -- °F
Precip. -- in
Pressure 30.10 in
Visibility 1.5 miles
Clouds Overcast 1600 ft
Windchill 28 °F
Dew Point 26 °F
Humidity 91%
Rainfall 0.00 in
Snow Depth Not available.
7:06 AM 4:35 PM
First Quarter, 60% visible
SPECI KRNO 080520Z 07004KT 1 1/2SM -SN OVC016 M02/M04 A3010 RMK AO2 SNE03B08 P0001 T10171044
Pressure 30.10 in
Visibility 1.5 miles
Clouds Overcast 1600 ft
Windchill 28 °F
Dew Point 26 °F
Humidity 91%
Rainfall 0.00 in
Snow Depth Not available.
7:06 AM 4:35 PM
First Quarter, 60% visible
SPECI KRNO 080520Z 07004KT 1 1/2SM -SN OVC016 M02/M04 A3010 RMK AO2 SNE03B08 P0001 T10171044

10-Day Weather Forecast

Almanac

Astronomy

Dec. 07, 2016 Rise Set
Actual Time
Civil Twilight
Nautical Twilight
Astronomical Twilight
Moon
Length of Visible Light
Length of Day
Tomorrow will be .
, % of the Moon is Illuminated

Today's Extremes

State Highs State Lows

Community

WunderPhotos

Upload Photos

1,956,259 photos uploaded!

WunderBlog® & News

Nearby

Air Quality

  Air Quality AQ Index Pollutant
Not available.

Snow Depth

Station Depth Elevation

Earthquake Activity

City Distance Mag. Time & Date
Minimum magnitude displayed is 2.5.

Coastal Water Temperatures

Place Temperature

Stations

Nearby Weather Stations

Station Location Temp. Windchill Dew Point Humidity Wind Precip. Elev Updated Type
                   

Watches & Warnings

Winter Weather Advisory
Issued: 3:23 PM PST Dec. 7, 2016 – National Weather Service

... Winter Weather Advisory remains in effect until 10 am PST
Thursday...

* timing: snow will spread across the area this evening... then
become mixed with freezing rain and rain in the valleys early
Thursday morning.

* Snow accumulations: 1 to 3 inches.

* Freezing rain accumulations: up to one tenth of an inch.

* Snow levels: all valley floors this evening... then rising to
over 7000 feet late Thursday morning with mixed winter
precipitation in the valleys.

* Impacts: a light coating of snow and black ice could create
very difficult travel conditions. Ice will also accumulate
on sidewalks... tree limbs and power lines. Those with travel
plans are urged to maintain an increased awareness while
driving tonight and Thursday morning.

Precautionary/preparedness actions...

Even light snowfall or ice accretion causes major travel delays,
especially during periods of high traffic volume. Be sure to allow
extra time to reach your destination. Leave extra space between
vehicles since it takes longer to stop on slick roadways.